sensor_id;sensor_type;location;lat;lon;timestamp;P1;durP1;ratioP1;P2;durP2;ratioP2
27127;SDS011;14660;49.008;8.390;2022-12-18T00:01:14;56.10;;;24.83;;
27127;SDS011;14660;49.008;8.390;2022-12-18T00:04:02;55.53;;;26.20;;
27127;SDS011;14660;49.008;8.390;2022-12-18T00:06:34;54.78;;;23.77;;
27127;SDS011;14660;49.008;8.390;2022-12-18T00:09:02;53.08;;;25.35;;
27127;SDS011;14660;49.008;8.390;2022-12-18T00:11:30;52.15;;;24.38;;
27127;SDS011;14660;49.008;8.390;2022-12-18T00:13:58;54.58;;;26.13;;
27127;SDS011;14660;49.008;8.390;2022-12-18T00:16:26;56.75;;;25.42;;
27127;SDS011;14660;49.008;8.390;2022-12-18T00:18:54;62.00;;;25.77;;
27127;SDS011;14660;49.008;8.390;2022-12-18T00:21:26;60.65;;;27.73;;
27127;SDS011;14660;49.008;8.390;2022-12-18T00:23:54;55.67;;;24.75;;
27127;SDS011;14660;49.008;8.390;2022-12-18T00:26:22;57.40;;;24.70;;
27127;SDS011;14660;49.008;8.390;2022-12-18T00:28:55;54.58;;;25.63;;
27127;SDS011;14660;49.008;8.390;2022-12-18T00:31:25;54.72;;;24.52;;
27127;SDS011;14660;49.008;8.390;2022-12-18T00:33:55;52.30;;;24.35;;
27127;SDS011;14660;49.008;8.390;2022-12-18T00:36:33;56.42;;;26.10;;
27127;SDS011;14660;49.008;8.390;2022-12-18T00:39:02;56.53;;;25.92;;
27127;SDS011;14660;49.008;8.390;2022-12-18T00:41:31;54.97;;;26.48;;
27127;SDS011;14660;49.008;8.390;2022-12-18T00:44:17;54.88;;;25.40;;
27127;SDS011;14660;49.008;8.390;2022-12-18T00:46:45;57.13;;;26.17;;
27127;SDS011;14660;49.008;8.390;2022-12-18T00:49:13;53.55;;;23.35;;
27127;SDS011;14660;49.008;8.390;2022-12-18T00:51:40;60.22;;;27.10;;
27127;SDS011;14660;49.008;8.390;2022-12-18T00:54:06;52.20;;;26.23;;
27127;SDS011;14660;49.008;8.390;2022-12-18T00:56:34;46.72;;;23.95;;
27127;SDS011;14660;49.008;8.390;2022-12-18T00:59:02;50.85;;;23.85;;
27127;SDS011;14660;49.008;8.390;2022-12-18T01:01:30;54.65;;;26.30;;
27127;SDS011;14660;49.008;8.390;2022-12-18T01:03:56;57.35;;;26.52;;
27127;SDS011;14660;49.008;8.390;2022-12-18T01:06:24;57.80;;;25.83;;
27127;SDS011;14660;49.008;8.390;2022-12-18T01:08:51;57.63;;;26.13;;
27127;SDS011;14660;49.008;8.390;2022-12-18T01:11:18;53.58;;;26.00;;
27127;SDS011;14660;49.008;8.390;2022-12-18T01:13:46;49.05;;;25.08;;
27127;SDS011;14660;49.008;8.390;2022-12-18T01:16:13;53.15;;;26.65;;
27127;SDS011;14660;49.008;8.390;2022-12-18T01:18:42;53.05;;;26.02;;
27127;SDS011;14660;49.008;8.390;2022-12-18T01:21:10;52.90;;;24.98;;
27127;SDS011;14660;49.008;8.390;2022-12-18T01:23:39;58.55;;;26.45;;
27127;SDS011;14660;49.008;8.390;2022-12-18T01:26:13;55.60;;;26.00;;
27127;SDS011;14660;49.008;8.390;2022-12-18T01:28:41;52.88;;;25.15;;
27127;SDS011;14660;49.008;8.390;2022-12-18T01:31:11;46.25;;;24.40;;
27127;SDS011;14660;49.008;8.390;2022-12-18T01:33:43;52.35;;;25.02;;
27127;SDS011;14660;49.008;8.390;2022-12-18T01:36:27;57.33;;;25.73;;
27127;SDS011;14660;49.008;8.390;2022-12-18T01:38:58;51.42;;;23.13;;
27127;SDS011;14660;49.008;8.390;2022-12-18T01:41:27;56.78;;;24.92;;
27127;SDS011;14660;49.008;8.390;2022-12-18T01:55:50;49.28;;;24.42;;
27127;SDS011;14660;49.008;8.390;2022-12-18T01:58:21;58.60;;;24.45;;
27127;SDS011;14660;49.008;8.390;2022-12-18T02:00:54;57.05;;;25.90;;
27127;SDS011;14660;49.008;8.390;2022-12-18T02:03:22;56.38;;;24.75;;
27127;SDS011;14660;49.008;8.390;2022-12-18T02:20:45;47.08;;;25.00;;
27127;SDS011;14660;49.008;8.390;2022-12-18T02:26:26;58.17;;;24.90;;
27127;SDS011;14660;49.008;8.390;2022-12-18T02:29:08;47.00;;;23.08;;
27127;SDS011;14660;49.008;8.390;2022-12-18T02:31:39;47.53;;;22.50;;
27127;SDS011;14660;49.008;8.390;2022-12-18T02:34:13;54.25;;;24.38;;
27127;SDS011;14660;49.008;8.390;2022-12-18T02:36:42;60.55;;;25.75;;
27127;SDS011;14660;49.008;8.390;2022-12-18T02:39:11;50.22;;;26.40;;
27127;SDS011;14660;49.008;8.390;2022-12-18T02:41:40;56.22;;;25.52;;
27127;SDS011;14660;49.008;8.390;2022-12-18T02:44:09;51.17;;;25.33;;
27127;SDS011;14660;49.008;8.390;2022-12-18T02:46:43;52.95;;;25.83;;
27127;SDS011;14660;49.008;8.390;2022-12-18T03:04:00;46.13;;;23.45;;
27127;SDS011;14660;49.008;8.390;2022-12-18T03:09:25;51.85;;;25.48;;
27127;SDS011;14660;49.008;8.390;2022-12-18T03:11:58;52.40;;;25.13;;
27127;SDS011;14660;49.008;8.390;2022-12-18T03:17:38;59.58;;;25.08;;
27127;SDS011;14660;49.008;8.390;2022-12-18T03:20:10;54.30;;;25.35;;
27127;SDS011;14660;49.008;8.390;2022-12-18T03:22:40;53.55;;;24.95;;
27127;SDS011;14660;49.008;8.390;2022-12-18T03:25:11;51.97;;;23.55;;
27127;SDS011;14660;49.008;8.390;2022-12-18T03:27:41;53.08;;;24.25;;
27127;SDS011;14660;49.008;8.390;2022-12-18T03:30:13;49.22;;;23.73;;
27127;SDS011;14660;49.008;8.390;2022-12-18T03:35:42;50.13;;;22.35;;
27127;SDS011;14660;49.008;8.390;2022-12-18T03:38:10;52.53;;;22.65;;
27127;SDS011;14660;49.008;8.390;2022-12-18T03:46:23;58.30;;;24.15;;
27127;SDS011;14660;49.008;8.390;2022-12-18T03:49:07;52.30;;;24.35;;
27127;SDS011;14660;49.008;8.390;2022-12-18T03:51:38;55.47;;;24.40;;
27127;SDS011;14660;49.008;8.390;2022-12-18T03:54:11;47.17;;;23.58;;
27127;SDS011;14660;49.008;8.390;2022-12-18T03:56:46;48.70;;;23.17;;
27127;SDS011;14660;49.008;8.390;2022-12-18T03:59:17;51.13;;;22.88;;
27127;SDS011;14660;49.008;8.390;2022-12-18T04:01:47;53.67;;;23.48;;
27127;SDS011;14660;49.008;8.390;2022-12-18T04:04:16;53.63;;;24.17;;
27127;SDS011;14660;49.008;8.390;2022-12-18T04:06:45;55.70;;;26.05;;
27127;SDS011;14660;49.008;8.390;2022-12-18T04:09:14;48.72;;;25.35;;
27127;SDS011;14660;49.008;8.390;2022-12-18T04:11:41;51.05;;;23.10;;
27127;SDS011;14660;49.008;8.390;2022-12-18T04:14:10;50.17;;;22.42;;
27127;SDS011;14660;49.008;8.390;2022-12-18T04:16:37;51.05;;;23.73;;
27127;SDS011;14660;49.008;8.390;2022-12-18T04:19:04;50.35;;;23.38;;
27127;SDS011;14660;49.008;8.390;2022-12-18T04:21:31;59.42;;;25.00;;
27127;SDS011;14660;49.008;8.390;2022-12-18T04:23:58;55.45;;;23.83;;
27127;SDS011;14660;49.008;8.390;2022-12-18T04:26:24;57.58;;;22.73;;
27127;SDS011;14660;49.008;8.390;2022-12-18T04:28:51;57.50;;;25.40;;
27127;SDS011;14660;49.008;8.390;2022-12-18T04:31:18;53.42;;;22.90;;
27127;SDS011;14660;49.008;8.390;2022-12-18T04:33:45;58.30;;;26.83;;
27127;SDS011;14660;49.008;8.390;2022-12-18T04:36:12;51.55;;;24.27;;
27127;SDS011;14660;49.008;8.390;2022-12-18T04:38:38;55.42;;;26.75;;
27127;SDS011;14660;49.008;8.390;2022-12-18T04:41:05;55.63;;;24.38;;
27127;SDS011;14660;49.008;8.390;2022-12-18T04:43:32;55.78;;;24.83;;
27127;SDS011;14660;49.008;8.390;2022-12-18T04:46:05;51.25;;;24.13;;
27127;SDS011;14660;49.008;8.390;2022-12-18T04:48:34;58.83;;;25.70;;
27127;SDS011;14660;49.008;8.390;2022-12-18T04:51:01;56.33;;;25.35;;
27127;SDS011;14660;49.008;8.390;2022-12-18T04:53:28;63.55;;;26.92;;
27127;SDS011;14660;49.008;8.390;2022-12-18T04:58:51;72.82;;;25.42;;
27127;SDS011;14660;49.008;8.390;2022-12-18T05:01:18;60.00;;;25.27;;
27127;SDS011;14660;49.008;8.390;2022-12-18T05:03:45;57.17;;;24.48;;
27127;SDS011;14660;49.008;8.390;2022-12-18T05:06:11;61.38;;;23.85;;
27127;SDS011;14660;49.008;8.390;2022-12-18T05:08:38;64.03;;;28.38;;
27127;SDS011;14660;49.008;8.390;2022-12-18T05:11:09;69.35;;;27.42;;
27127;SDS011;14660;49.008;8.390;2022-12-18T05:13:37;54.65;;;26.23;;
27127;SDS011;14660;49.008;8.390;2022-12-18T05:16:04;68.28;;;25.85;;
27127;SDS011;14660;49.008;8.390;2022-12-18T05:18:31;59.95;;;25.83;;
27127;SDS011;14660;49.008;8.390;2022-12-18T05:20:58;62.00;;;25.60;;
27127;SDS011;14660;49.008;8.390;2022-12-18T05:23:26;58.30;;;25.35;;
27127;SDS011;14660;49.008;8.390;2022-12-18T05:28:41;71.28;;;27.45;;
27127;SDS011;14660;49.008;8.390;2022-12-18T05:31:07;59.88;;;25.70;;
27127;SDS011;14660;49.008;8.390;2022-12-18T05:33:35;63.08;;;26.15;;
27127;SDS011;14660;49.008;8.390;2022-12-18T05:36:03;57.80;;;25.35;;
27127;SDS011;14660;49.008;8.390;2022-12-18T05:38:33;52.88;;;25.35;;
27127;SDS011;14660;49.008;8.390;2022-12-18T05:41:00;53.60;;;24.23;;
27127;SDS011;14660;49.008;8.390;2022-12-18T05:43:27;52.13;;;25.38;;
27127;SDS011;14660;49.008;8.390;2022-12-18T05:45:54;57.97;;;28.08;;
27127;SDS011;14660;49.008;8.390;2022-12-18T05:48:22;58.95;;;26.92;;
27127;SDS011;14660;49.008;8.390;2022-12-18T05:50:49;52.60;;;24.92;;
27127;SDS011;14660;49.008;8.390;2022-12-18T05:53:17;64.55;;;24.95;;
27127;SDS011;14660;49.008;8.390;2022-12-18T05:55:45;56.70;;;26.25;;
27127;SDS011;14660;49.008;8.390;2022-12-18T05:58:13;52.83;;;22.80;;
27127;SDS011;14660;49.008;8.390;2022-12-18T06:00:41;60.22;;;25.80;;
27127;SDS011;14660;49.008;8.390;2022-12-18T06:03:11;57.63;;;25.60;;
27127;SDS011;14660;49.008;8.390;2022-12-18T06:05:40;56.53;;;25.85;;
27127;SDS011;14660;49.008;8.390;2022-12-18T06:08:12;61.15;;;24.20;;
27127;SDS011;14660;49.008;8.390;2022-12-18T06:10:39;65.50;;;24.27;;
27127;SDS011;14660;49.008;8.390;2022-12-18T06:13:07;53.58;;;24.30;;
27127;SDS011;14660;49.008;8.390;2022-12-18T06:15:37;54.75;;;25.98;;
27127;SDS011;14660;49.008;8.390;2022-12-18T06:18:04;57.42;;;23.27;;
27127;SDS011;14660;49.008;8.390;2022-12-18T06:20:31;60.85;;;25.65;;
27127;SDS011;14660;49.008;8.390;2022-12-18T06:22:58;57.97;;;24.08;;
27127;SDS011;14660;49.008;8.390;2022-12-18T06:25:26;56.90;;;24.90;;
27127;SDS011;14660;49.008;8.390;2022-12-18T06:27:53;60.35;;;25.60;;
27127;SDS011;14660;49.008;8.390;2022-12-18T06:30:19;57.53;;;24.45;;
27127;SDS011;14660;49.008;8.390;2022-12-18T06:32:54;50.50;;;22.95;;
27127;SDS011;14660;49.008;8.390;2022-12-18T06:35:21;48.22;;;23.85;;
27127;SDS011;14660;49.008;8.390;2022-12-18T06:37:48;65.18;;;25.98;;
27127;SDS011;14660;49.008;8.390;2022-12-18T06:40:15;65.43;;;23.85;;
27127;SDS011;14660;49.008;8.390;2022-12-18T06:42:41;60.58;;;24.45;;
27127;SDS011;14660;49.008;8.390;2022-12-18T06:45:08;57.75;;;24.92;;
27127;SDS011;14660;49.008;8.390;2022-12-18T06:47:35;55.55;;;25.42;;
27127;SDS011;14660;49.008;8.390;2022-12-18T06:50:02;54.58;;;23.27;;
27127;SDS011;14660;49.008;8.390;2022-12-18T06:52:31;67.95;;;24.20;;
27127;SDS011;14660;49.008;8.390;2022-12-18T06:54:59;60.35;;;23.88;;
27127;SDS011;14660;49.008;8.390;2022-12-18T06:57:26;56.28;;;25.33;;
27127;SDS011;14660;49.008;8.390;2022-12-18T06:59:52;51.88;;;23.17;;
27127;SDS011;14660;49.008;8.390;2022-12-18T07:02:19;63.50;;;24.88;;
27127;SDS011;14660;49.008;8.390;2022-12-18T07:04:46;67.18;;;26.05;;
27127;SDS011;14660;49.008;8.390;2022-12-18T07:07:15;66.25;;;26.40;;
27127;SDS011;14660;49.008;8.390;2022-12-18T07:09:42;55.72;;;25.08;;
27127;SDS011;14660;49.008;8.390;2022-12-18T07:12:09;58.33;;;24.13;;
27127;SDS011;14660;49.008;8.390;2022-12-18T07:14:36;56.53;;;23.67;;
27127;SDS011;14660;49.008;8.390;2022-12-18T07:17:03;59.05;;;24.65;;
27127;SDS011;14660;49.008;8.390;2022-12-18T07:19:30;55.60;;;23.27;;
27127;SDS011;14660;49.008;8.390;2022-12-18T07:21:57;54.30;;;25.02;;
27127;SDS011;14660;49.008;8.390;2022-12-18T07:24:24;63.83;;;24.40;;
27127;SDS011;14660;49.008;8.390;2022-12-18T07:26:50;58.28;;;23.38;;
27127;SDS011;14660;49.008;8.390;2022-12-18T07:29:17;52.70;;;23.60;;
27127;SDS011;14660;49.008;8.390;2022-12-18T07:31:44;52.53;;;21.13;;
27127;SDS011;14660;49.008;8.390;2022-12-18T07:34:11;56.10;;;23.52;;
27127;SDS011;14660;49.008;8.390;2022-12-18T07:36:39;54.05;;;23.02;;
27127;SDS011;14660;49.008;8.390;2022-12-18T07:39:06;64.95;;;23.88;;
27127;SDS011;14660;49.008;8.390;2022-12-18T07:41:33;52.67;;;21.63;;
27127;SDS011;14660;49.008;8.390;2022-12-18T07:44:00;57.45;;;24.05;;
27127;SDS011;14660;49.008;8.390;2022-12-18T07:46:26;61.58;;;23.95;;
27127;SDS011;14660;49.008;8.390;2022-12-18T07:48:53;56.97;;;21.30;;
27127;SDS011;14660;49.008;8.390;2022-12-18T07:51:20;57.35;;;24.42;;
27127;SDS011;14660;49.008;8.390;2022-12-18T07:53:47;55.38;;;23.38;;
27127;SDS011;14660;49.008;8.390;2022-12-18T07:56:14;58.47;;;26.05;;
27127;SDS011;14660;49.008;8.390;2022-12-18T07:58:41;52.47;;;23.30;;
27127;SDS011;14660;49.008;8.390;2022-12-18T08:01:09;50.22;;;24.00;;
27127;SDS011;14660;49.008;8.390;2022-12-18T08:03:37;65.80;;;25.55;;
27127;SDS011;14660;49.008;8.390;2022-12-18T08:06:06;55.65;;;26.23;;
27127;SDS011;14660;49.008;8.390;2022-12-18T08:08:35;55.70;;;24.48;;
27127;SDS011;14660;49.008;8.390;2022-12-18T08:11:02;62.25;;;25.98;;
27127;SDS011;14660;49.008;8.390;2022-12-18T08:13:30;64.25;;;24.92;;
27127;SDS011;14660;49.008;8.390;2022-12-18T08:15:57;68.28;;;25.13;;
27127;SDS011;14660;49.008;8.390;2022-12-18T08:18:26;68.60;;;25.98;;
27127;SDS011;14660;49.008;8.390;2022-12-18T08:20:53;58.15;;;25.98;;
27127;SDS011;14660;49.008;8.390;2022-12-18T08:23:20;57.85;;;25.23;;
27127;SDS011;14660;49.008;8.390;2022-12-18T08:25:47;62.53;;;25.58;;
27127;SDS011;14660;49.008;8.390;2022-12-18T08:28:14;57.67;;;23.48;;
27127;SDS011;14660;49.008;8.390;2022-12-18T08:30:41;53.63;;;23.02;;
27127;SDS011;14660;49.008;8.390;2022-12-18T08:33:08;59.75;;;25.35;;
27127;SDS011;14660;49.008;8.390;2022-12-18T08:35:36;61.95;;;25.67;;
27127;SDS011;14660;49.008;8.390;2022-12-18T08:38:03;60.92;;;25.08;;
27127;SDS011;14660;49.008;8.390;2022-12-18T08:40:29;56.85;;;24.08;;
27127;SDS011;14660;49.008;8.390;2022-12-18T08:42:56;68.43;;;25.75;;
27127;SDS011;14660;49.008;8.390;2022-12-18T08:45:45;64.88;;;25.60;;
27127;SDS011;14660;49.008;8.390;2022-12-18T08:48:12;60.83;;;24.50;;
27127;SDS011;14660;49.008;8.390;2022-12-18T08:50:39;76.10;;;27.70;;
27127;SDS011;14660;49.008;8.390;2022-12-18T08:53:06;67.05;;;30.20;;
27127;SDS011;14660;49.008;8.390;2022-12-18T08:55:33;57.78;;;28.73;;
27127;SDS011;14660;49.008;8.390;2022-12-18T08:58:01;61.85;;;24.83;;
27127;SDS011;14660;49.008;8.390;2022-12-18T09:00:31;61.25;;;25.08;;
27127;SDS011;14660;49.008;8.390;2022-12-18T09:02:58;61.88;;;25.15;;
27127;SDS011;14660;49.008;8.390;2022-12-18T09:05:25;60.33;;;24.77;;
27127;SDS011;14660;49.008;8.390;2022-12-18T09:07:52;61.38;;;27.20;;
27127;SDS011;14660;49.008;8.390;2022-12-18T09:10:19;62.60;;;26.20;;
27127;SDS011;14660;49.008;8.390;2022-12-18T09:12:45;59.97;;;24.05;;
27127;SDS011;14660;49.008;8.390;2022-12-18T09:15:12;62.30;;;26.38;;
27127;SDS011;14660;49.008;8.390;2022-12-18T09:17:39;65.53;;;26.60;;
27127;SDS011;14660;49.008;8.390;2022-12-18T09:20:06;60.58;;;27.05;;
27127;SDS011;14660;49.008;8.390;2022-12-18T09:22:33;64.18;;;25.70;;
27127;SDS011;14660;49.008;8.390;2022-12-18T09:25:00;53.55;;;23.52;;
27127;SDS011;14660;49.008;8.390;2022-12-18T09:27:27;63.05;;;26.27;;
27127;SDS011;14660;49.008;8.390;2022-12-18T09:29:54;53.75;;;24.23;;
27127;SDS011;14660;49.008;8.390;2022-12-18T09:32:20;61.53;;;27.17;;
27127;SDS011;14660;49.008;8.390;2022-12-18T09:34:51;55.08;;;27.02;;
27127;SDS011;14660;49.008;8.390;2022-12-18T09:37:18;58.58;;;25.80;;
27127;SDS011;14660;49.008;8.390;2022-12-18T09:39:45;63.47;;;25.95;;
27127;SDS011;14660;49.008;8.390;2022-12-18T09:42:18;59.90;;;25.63;;
27127;SDS011;14660;49.008;8.390;2022-12-18T09:44:49;65.88;;;28.15;;
27127;SDS011;14660;49.008;8.390;2022-12-18T09:47:32;63.40;;;26.40;;
27127;SDS011;14660;49.008;8.390;2022-12-18T09:50:05;56.83;;;26.60;;
27127;SDS011;14660;49.008;8.390;2022-12-18T09:52:47;56.72;;;25.48;;
27127;SDS011;14660;49.008;8.390;2022-12-18T10:00:55;65.22;;;27.58;;
27127;SDS011;14660;49.008;8.390;2022-12-18T10:03:22;61.03;;;26.38;;
27127;SDS011;14660;49.008;8.390;2022-12-18T10:17:58;60.42;;;26.25;;
27127;SDS011;14660;49.008;8.390;2022-12-18T10:20:46;60.03;;;26.73;;
27127;SDS011;14660;49.008;8.390;2022-12-18T10:26:20;63.63;;;29.92;;
27127;SDS011;14660;49.008;8.390;2022-12-18T10:28:48;65.60;;;30.33;;
27127;SDS011;14660;49.008;8.390;2022-12-18T10:31:19;69.03;;;30.75;;
27127;SDS011;14660;49.008;8.390;2022-12-18T10:33:48;61.50;;;27.38;;
27127;SDS011;14660;49.008;8.390;2022-12-18T10:36:15;62.50;;;28.40;;
27127;SDS011;14660;49.008;8.390;2022-12-18T10:38:40;56.42;;;26.60;;
27127;SDS011;14660;49.008;8.390;2022-12-18T10:47:02;68.82;;;31.60;;
27127;SDS011;14660;49.008;8.390;2022-12-18T10:49:37;76.15;;;35.08;;
27127;SDS011;14660;49.008;8.390;2022-12-18T10:52:20;60.17;;;29.23;;
27127;SDS011;14660;49.008;8.390;2022-12-18T10:54:53;67.07;;;28.42;;
27127;SDS011;14660;49.008;8.390;2022-12-18T10:57:56;62.22;;;28.08;;
27127;SDS011;14660;49.008;8.390;2022-12-18T11:00:29;64.43;;;27.67;;
27127;SDS011;14660;49.008;8.390;2022-12-18T11:02:57;60.35;;;25.63;;
27127;SDS011;14660;49.008;8.390;2022-12-18T11:08:18;62.90;;;26.13;;
27127;SDS011;14660;49.008;8.390;2022-12-18T11:10:49;59.13;;;25.90;;
27127;SDS011;14660;49.008;8.390;2022-12-18T11:16:00;99.85;;;40.92;;
27127;SDS011;14660;49.008;8.390;2022-12-18T11:18:38;64.80;;;28.35;;
27127;SDS011;14660;49.008;8.390;2022-12-18T11:23:50;61.92;;;24.40;;
27127;SDS011;14660;49.008;8.390;2022-12-18T11:26:19;60.05;;;25.90;;
27127;SDS011;14660;49.008;8.390;2022-12-18T11:31:42;64.55;;;26.00;;
27127;SDS011;14660;49.008;8.390;2022-12-18T11:36:58;67.13;;;27.77;;
27127;SDS011;14660;49.008;8.390;2022-12-18T11:50:53;72.63;;;28.00;;
27127;SDS011;14660;49.008;8.390;2022-12-18T11:53:22;62.97;;;25.67;;
27127;SDS011;14660;49.008;8.390;2022-12-18T12:23:47;62.38;;;29.23;;
27127;SDS011;14660;49.008;8.390;2022-12-18T12:32:03;64.13;;;27.52;;
27127;SDS011;14660;49.008;8.390;2022-12-18T12:40:48;58.25;;;27.15;;
27127;SDS011;14660;49.008;8.390;2022-12-18T12:51:40;53.10;;;24.67;;
27127;SDS011;14660;49.008;8.390;2022-12-18T12:54:19;61.13;;;27.13;;
27127;SDS011;14660;49.008;8.390;2022-12-18T13:08:53;55.55;;;25.60;;
27127;SDS011;14660;49.008;8.390;2022-12-18T13:14:36;53.45;;;23.92;;
27127;SDS011;14660;49.008;8.390;2022-12-18T13:20:11;68.05;;;32.30;;
27127;SDS011;14660;49.008;8.390;2022-12-18T13:25:42;59.88;;;26.92;;
27127;SDS011;14660;49.008;8.390;2022-12-18T13:31:00;60.90;;;27.00;;
27127;SDS011;14660;49.008;8.390;2022-12-18T13:36:31;55.90;;;26.30;;
27127;SDS011;14660;49.008;8.390;2022-12-18T13:41:45;60.85;;;24.88;;
27127;SDS011;14660;49.008;8.390;2022-12-18T13:46:52;54.78;;;26.17;;
27127;SDS011;14660;49.008;8.390;2022-12-18T13:54:52;56.25;;;25.20;;
27127;SDS011;14660;49.008;8.390;2022-12-18T14:03:17;57.70;;;26.38;;
27127;SDS011;14660;49.008;8.390;2022-12-18T14:05:45;56.33;;;25.88;;
27127;SDS011;14660;49.008;8.390;2022-12-18T14:08:14;57.55;;;26.13;;
27127;SDS011;14660;49.008;8.390;2022-12-18T14:10:43;59.42;;;27.70;;
27127;SDS011;14660;49.008;8.390;2022-12-18T14:13:33;53.92;;;25.92;;
27127;SDS011;14660;49.008;8.390;2022-12-18T14:16:04;61.83;;;29.33;;
27127;SDS011;14660;49.008;8.390;2022-12-18T14:21:27;69.22;;;28.90;;
27127;SDS011;14660;49.008;8.390;2022-12-18T14:29:35;60.38;;;25.73;;
27127;SDS011;14660;49.008;8.390;2022-12-18T14:32:19;71.32;;;31.70;;
27127;SDS011;14660;49.008;8.390;2022-12-18T14:34:51;54.13;;;27.73;;
27127;SDS011;14660;49.008;8.390;2022-12-18T14:37:23;58.20;;;30.00;;
27127;SDS011;14660;49.008;8.390;2022-12-18T14:40:03;64.20;;;27.90;;
27127;SDS011;14660;49.008;8.390;2022-12-18T14:42:30;61.83;;;27.23;;
27127;SDS011;14660;49.008;8.390;2022-12-18T14:48:05;55.40;;;26.35;;
27127;SDS011;14660;49.008;8.390;2022-12-18T14:50:58;60.40;;;29.05;;
27127;SDS011;14660;49.008;8.390;2022-12-18T14:53:36;57.00;;;27.27;;
27127;SDS011;14660;49.008;8.390;2022-12-18T14:56:11;62.80;;;26.65;;
27127;SDS011;14660;49.008;8.390;2022-12-18T14:58:51;60.85;;;28.52;;
27127;SDS011;14660;49.008;8.390;2022-12-18T15:04:34;64.90;;;29.83;;
27127;SDS011;14660;49.008;8.390;2022-12-18T15:07:24;63.33;;;30.40;;
27127;SDS011;14660;49.008;8.390;2022-12-18T15:15:48;67.15;;;30.20;;
27127;SDS011;14660;49.008;8.390;2022-12-18T15:18:16;69.25;;;31.90;;
27127;SDS011;14660;49.008;8.390;2022-12-18T15:26:22;68.50;;;32.00;;
27127;SDS011;14660;49.008;8.390;2022-12-18T15:28:50;56.97;;;27.95;;
27127;SDS011;14660;49.008;8.390;2022-12-18T15:36:54;57.58;;;29.10;;
27127;SDS011;14660;49.008;8.390;2022-12-18T15:39:23;58.40;;;29.60;;
27127;SDS011;14660;49.008;8.390;2022-12-18T15:41:50;56.80;;;28.55;;
27127;SDS011;14660;49.008;8.390;2022-12-18T15:47:21;59.95;;;29.08;;
27127;SDS011;14660;49.008;8.390;2022-12-18T15:49:47;67.95;;;31.63;;
27127;SDS011;14660;49.008;8.390;2022-12-18T15:52:14;66.30;;;31.75;;
27127;SDS011;14660;49.008;8.390;2022-12-18T15:54:52;67.40;;;30.73;;
27127;SDS011;14660;49.008;8.390;2022-12-18T15:57:38;68.13;;;31.48;;
27127;SDS011;14660;49.008;8.390;2022-12-18T16:00:10;64.07;;;29.65;;
27127;SDS011;14660;49.008;8.390;2022-12-18T16:02:38;60.25;;;28.98;;
27127;SDS011;14660;49.008;8.390;2022-12-18T16:05:09;65.00;;;30.42;;
27127;SDS011;14660;49.008;8.390;2022-12-18T16:07:41;62.80;;;31.02;;
27127;SDS011;14660;49.008;8.390;2022-12-18T16:10:09;69.93;;;32.40;;
27127;SDS011;14660;49.008;8.390;2022-12-18T16:12:37;65.45;;;32.47;;
27127;SDS011;14660;49.008;8.390;2022-12-18T16:15:05;64.53;;;30.73;;
27127;SDS011;14660;49.008;8.390;2022-12-18T16:17:32;70.88;;;31.95;;
27127;SDS011;14660;49.008;8.390;2022-12-18T16:19:59;64.20;;;30.65;;
27127;SDS011;14660;49.008;8.390;2022-12-18T16:22:27;66.82;;;30.50;;
27127;SDS011;14660;49.008;8.390;2022-12-18T16:24:56;67.82;;;30.70;;
27127;SDS011;14660;49.008;8.390;2022-12-18T16:27:23;61.10;;;30.65;;
27127;SDS011;14660;49.008;8.390;2022-12-18T16:29:52;76.88;;;31.35;;
27127;SDS011;14660;49.008;8.390;2022-12-18T16:32:19;70.82;;;30.33;;
27127;SDS011;14660;49.008;8.390;2022-12-18T16:34:47;63.47;;;30.83;;
27127;SDS011;14660;49.008;8.390;2022-12-18T16:37:15;72.50;;;33.22;;
27127;SDS011;14660;49.008;8.390;2022-12-18T16:39:42;66.80;;;30.70;;
27127;SDS011;14660;49.008;8.390;2022-12-18T16:42:19;62.53;;;31.20;;
27127;SDS011;14660;49.008;8.390;2022-12-18T16:44:47;62.28;;;27.88;;
27127;SDS011;14660;49.008;8.390;2022-12-18T16:47:15;69.82;;;30.75;;
27127;SDS011;14660;49.008;8.390;2022-12-18T16:49:43;512.65;;;262.38;;
27127;SDS011;14660;49.008;8.390;2022-12-18T16:52:11;650.97;;;346.38;;
27127;SDS011;14660;49.008;8.390;2022-12-18T16:54:39;192.43;;;94.28;;
27127;SDS011;14660;49.008;8.390;2022-12-18T16:57:08;93.30;;;44.03;;
27127;SDS011;14660;49.008;8.390;2022-12-18T16:59:38;74.75;;;33.08;;
27127;SDS011;14660;49.008;8.390;2022-12-18T17:02:05;64.45;;;30.27;;
27127;SDS011;14660;49.008;8.390;2022-12-18T17:07:04;82.30;;;35.95;;
27127;SDS011;14660;49.008;8.390;2022-12-18T17:09:31;79.03;;;35.03;;
27127;SDS011;14660;49.008;8.390;2022-12-18T17:11:58;95.68;;;40.38;;
27127;SDS011;14660;49.008;8.390;2022-12-18T17:14:26;67.25;;;33.03;;
27127;SDS011;14660;49.008;8.390;2022-12-18T17:16:53;67.07;;;30.20;;
27127;SDS011;14660;49.008;8.390;2022-12-18T17:19:25;70.85;;;32.05;;
27127;SDS011;14660;49.008;8.390;2022-12-18T17:21:52;92.45;;;41.78;;
27127;SDS011;14660;49.008;8.390;2022-12-18T17:24:19;86.03;;;41.58;;
27127;SDS011;14660;49.008;8.390;2022-12-18T17:26:47;77.93;;;37.90;;
27127;SDS011;14660;49.008;8.390;2022-12-18T17:29:17;71.13;;;35.03;;
27127;SDS011;14660;49.008;8.390;2022-12-18T17:31:46;72.82;;;35.95;;
27127;SDS011;14660;49.008;8.390;2022-12-18T17:34:13;82.80;;;40.35;;
27127;SDS011;14660;49.008;8.390;2022-12-18T17:36:40;68.53;;;35.53;;
27127;SDS011;14660;49.008;8.390;2022-12-18T17:39:07;127.78;;;80.47;;
27127;SDS011;14660;49.008;8.390;2022-12-18T17:41:41;138.60;;;89.60;;
27127;SDS011;14660;49.008;8.390;2022-12-18T17:44:08;277.55;;;182.38;;
27127;SDS011;14660;49.008;8.390;2022-12-18T17:46:35;125.28;;;67.63;;
27127;SDS011;14660;49.008;8.390;2022-12-18T17:49:02;76.20;;;33.17;;
27127;SDS011;14660;49.008;8.390;2022-12-18T17:51:29;84.57;;;38.85;;
27127;SDS011;14660;49.008;8.390;2022-12-18T17:53:57;76.93;;;33.97;;
27127;SDS011;14660;49.008;8.390;2022-12-18T17:56:24;63.92;;;32.10;;
27127;SDS011;14660;49.008;8.390;2022-12-18T17:58:51;62.17;;;29.52;;
27127;SDS011;14660;49.008;8.390;2022-12-18T18:01:18;67.18;;;29.77;;
27127;SDS011;14660;49.008;8.390;2022-12-18T18:03:47;58.55;;;28.80;;
27127;SDS011;14660;49.008;8.390;2022-12-18T18:06:18;69.90;;;29.60;;
27127;SDS011;14660;49.008;8.390;2022-12-18T18:08:46;69.22;;;29.80;;
27127;SDS011;14660;49.008;8.390;2022-12-18T18:11:14;58.47;;;27.90;;
27127;SDS011;14660;49.008;8.390;2022-12-18T18:14:02;63.33;;;29.45;;
27127;SDS011;14660;49.008;8.390;2022-12-18T18:19:18;61.97;;;27.05;;
27127;SDS011;14660;49.008;8.390;2022-12-18T18:21:47;64.88;;;30.52;;
27127;SDS011;14660;49.008;8.390;2022-12-18T18:24:17;59.05;;;27.98;;
27127;SDS011;14660;49.008;8.390;2022-12-18T18:26:45;65.60;;;27.42;;
27127;SDS011;14660;49.008;8.390;2022-12-18T18:29:13;60.13;;;27.55;;
27127;SDS011;14660;49.008;8.390;2022-12-18T18:31:45;64.32;;;29.05;;
27127;SDS011;14660;49.008;8.390;2022-12-18T18:34:17;67.63;;;29.88;;
27127;SDS011;14660;49.008;8.390;2022-12-18T18:36:49;65.40;;;29.23;;
27127;SDS011;14660;49.008;8.390;2022-12-18T18:39:18;73.30;;;30.70;;
27127;SDS011;14660;49.008;8.390;2022-12-18T18:41:46;69.68;;;28.83;;
27127;SDS011;14660;49.008;8.390;2022-12-18T18:44:13;72.70;;;27.50;;